Terminal Aerodrome Forecast
Issued by NWS Cleveland, OH

Home | Current Version | Previous Version | Graphics & Text | Print | Product List | Glossary On
Versions: 1 2 3 4 5 6 7 8 9 10 11 12 13 14 15 16 17
000
FTUS41 KCLE 211014 AAB
TAFTOL
TAF AMD
KTOL 211014Z 2110/2206 12008KT 1/2SM FG VV002 OVC100
      TEMPO 2110/2113 3SM -SHRA SCT002 OVC080
     FM211300 18009KT 5SM -SHRA BR VCTS BKN020 OVC080CB
     FM211600 22014G20KT P6SM BKN025
     FM212000 23014G20KT P6SM VCTS SCT025 BKN050CB
     FM212200 25014KT P6SM BKN035=

USA.gov is the U.S. government's official web portal to all federal, state and local government web resources and services.